createdAt,value
2022-09-22T00:01:07.879Z,97660.06
2022-09-22T00:03:35.843Z,97646.31
2022-09-22T00:06:09.390Z,97651.06
2022-09-22T00:08:39.050Z,97649.28
2022-09-22T00:11:08.353Z,97652.72
2022-09-22T00:13:36.127Z,97655.56
2022-09-22T00:16:03.287Z,97651.84
2022-09-22T00:18:29.909Z,97654.47
2022-09-22T00:20:56.429Z,97646.66
2022-09-22T00:23:26.696Z,97655.22
2022-09-22T00:25:53.175Z,97660.41
2022-09-22T00:28:20.294Z,97656.41
2022-09-22T00:30:47.562Z,97660.78
2022-09-22T00:33:13.975Z,97658.78
2022-09-22T00:35:40.464Z,97661.97
2022-09-22T00:38:08.201Z,97659.94
2022-09-22T00:40:35.717Z,97652.97
2022-09-22T00:43:12.719Z,97659.34
2022-09-22T00:45:39.225Z,97650.00
2022-09-22T00:48:05.674Z,97656.59
2022-09-22T00:50:32.397Z,97649.66
2022-09-22T00:53:02.086Z,97655.09
2022-09-22T00:55:47.190Z,97652.16
2022-09-22T00:58:16.277Z,97650.13
2022-09-22T01:00:43.211Z,97644.69
2022-09-22T01:03:12.780Z,97646.59
2022-09-22T01:05:41.177Z,97642.56
2022-09-22T01:08:08.328Z,97642.19
2022-09-22T01:10:34.838Z,97641.72
2022-09-22T01:13:07.483Z,97637.44
2022-09-22T01:15:41.247Z,97638.88
2022-09-22T01:18:13.690Z,97637.59
2022-09-22T01:21:02.519Z,97634.84
2022-09-22T01:23:40.722Z,97629.19
2022-09-22T01:26:07.306Z,97636.63
2022-09-22T01:28:39.832Z,97628.22
2022-09-22T01:31:11.884Z,97634.03
2022-09-22T01:33:38.357Z,97633.44
2022-09-22T01:36:07.886Z,97634.84
2022-09-22T01:38:34.329Z,97633.44
2022-09-22T01:41:03.938Z,97632.97
2022-09-22T01:43:42.622Z,97636.03
2022-09-22T01:46:15.077Z,97626.81
2022-09-22T01:48:44.636Z,97630.56
2022-09-22T01:51:14.560Z,97618.50
2022-09-22T01:53:44.174Z,97616.25
2022-09-22T01:56:13.133Z,97622.69
2022-09-22T01:58:42.585Z,97617.56
2022-09-22T02:01:14.743Z,97620.16
2022-09-22T02:03:44.478Z,97623.00
2022-09-22T02:06:23.806Z,97612.81
2022-09-22T02:08:56.855Z,97622.53
2022-09-22T02:11:23.912Z,97613.31
2022-09-22T02:13:50.995Z,97615.91
2022-09-22T02:16:19.834Z,97610.91
2022-09-22T02:18:50.290Z,97612.44
2022-09-22T02:21:17.429Z,97611.66
2022-09-22T02:23:44.531Z,97608.91
2022-09-22T02:26:13.169Z,97609.00
2022-09-22T02:28:42.046Z,97610.59
2022-09-22T02:31:20.179Z,97606.25
2022-09-22T02:33:47.473Z,97609.69
2022-09-22T02:36:13.981Z,97605.44
2022-09-22T02:38:44.812Z,97600.00
2022-09-22T02:41:17.701Z,97601.19
2022-09-22T02:43:48.723Z,97603.47
2022-09-22T02:46:32.085Z,97600.00
2022-09-22T02:49:00.582Z,97602.75
2022-09-22T02:51:28.026Z,97602.31
2022-09-22T02:53:54.453Z,97606.44
2022-09-22T02:56:20.926Z,97612.59
2022-09-22T02:58:47.399Z,97605.13
2022-09-22T03:01:13.929Z,97608.25
2022-09-22T03:03:41.080Z,97604.00
2022-09-22T03:06:07.570Z,97613.44
2022-09-22T03:08:34.056Z,97607.56
2022-09-22T03:11:00.514Z,97612.19
2022-09-22T03:13:26.958Z,97605.88
2022-09-22T03:15:53.571Z,97597.53
2022-09-22T03:18:21.099Z,97605.88
2022-09-22T03:20:47.578Z,97597.66
2022-09-22T03:23:14.173Z,97595.72
2022-09-22T03:25:40.855Z,97594.03
2022-09-22T03:28:07.392Z,97596.91
2022-09-22T03:30:37.233Z,97585.59
2022-09-22T03:33:03.865Z,97585.38
2022-09-22T03:35:32.344Z,97597.69
2022-09-22T03:37:59.053Z,97591.88
2022-09-22T03:40:25.640Z,97592.28
2022-09-22T03:42:52.217Z,97602.97
2022-09-22T03:45:18.763Z,97596.47
2022-09-22T03:47:46.553Z,97594.00
2022-09-22T03:50:14.235Z,97595.59
2022-09-22T03:52:43.188Z,97598.44
2022-09-22T03:55:10.002Z,97595.19
2022-09-22T03:57:36.456Z,97589.56
2022-09-22T04:00:04.021Z,97591.91
2022-09-22T04:02:31.717Z,97588.72
2022-09-22T04:04:58.231Z,97595.75
2022-09-22T04:07:24.656Z,97576.97
2022-09-22T04:09:51.155Z,97597.53
2022-09-22T04:12:17.644Z,97593.38
2022-09-22T04:14:44.113Z,97594.31
2022-09-22T04:17:11.208Z,97599.25
2022-09-22T04:19:37.757Z,97600.09
2022-09-22T04:22:04.434Z,97598.34
2022-09-22T04:24:31.482Z,97594.06
2022-09-22T04:27:19.000Z,97593.06
2022-09-22T04:29:46.306Z,97592.91
2022-09-22T04:32:14.624Z,97583.44
2022-09-22T04:34:41.161Z,97586.50
2022-09-22T04:37:07.628Z,97595.00
2022-09-22T04:39:34.099Z,97583.84
2022-09-22T04:42:00.914Z,97589.13
2022-09-22T04:44:27.466Z,97583.84
2022-09-22T04:46:55.908Z,97583.34
2022-09-22T04:49:22.567Z,97587.69
2022-09-22T04:51:49.095Z,97589.19
2022-09-22T04:54:15.548Z,97585.06
2022-09-22T04:56:42.238Z,97587.88
2022-09-22T04:59:10.093Z,97594.28
2022-09-22T05:01:36.723Z,97590.47
2022-09-22T05:04:03.315Z,97592.28
2022-09-22T05:06:29.972Z,97596.84
2022-09-22T05:08:56.747Z,97594.97
2022-09-22T05:11:23.719Z,97586.31
2022-09-22T05:13:50.965Z,97594.47
2022-09-22T05:16:17.918Z,97590.66
2022-09-22T05:18:44.418Z,97588.81
2022-09-22T05:21:10.930Z,97592.66
2022-09-22T05:23:37.348Z,97590.84
2022-09-22T05:26:03.863Z,97590.56
2022-09-22T05:28:30.268Z,97591.34
2022-09-22T05:30:56.722Z,97580.84
2022-09-22T05:33:23.133Z,97587.28
2022-09-22T05:35:49.646Z,97589.59
2022-09-22T05:38:16.046Z,97589.97
2022-09-22T05:40:44.878Z,97598.06
2022-09-22T05:43:11.370Z,97601.53
2022-09-22T05:45:37.874Z,97596.69
2022-09-22T05:48:04.472Z,97595.94
2022-09-22T05:50:31.046Z,97600.56
2022-09-22T05:53:04.920Z,97600.25
2022-09-22T05:55:31.368Z,97603.53
2022-09-22T05:57:58.064Z,97608.03
2022-09-22T06:00:24.584Z,97599.31
2022-09-22T06:02:51.062Z,97601.94
2022-09-22T06:05:19.493Z,97601.69
2022-09-22T06:07:46.441Z,97596.03
2022-09-22T06:10:12.999Z,97606.53
2022-09-22T06:12:40.714Z,97596.03
2022-09-22T06:15:07.933Z,97598.00
2022-09-22T06:17:34.400Z,97599.72
2022-09-22T06:20:01.016Z,97607.88
2022-09-22T06:22:27.441Z,97595.00
2022-09-22T06:24:54.114Z,97603.41
2022-09-22T06:27:20.537Z,97597.06
2022-09-22T06:29:47.032Z,97595.66
2022-09-22T06:32:13.852Z,97602.03
2022-09-22T06:34:40.296Z,97601.22
2022-09-22T06:37:09.675Z,97608.75
2022-09-22T06:39:39.207Z,97598.66
2022-09-22T06:42:06.273Z,97606.16
2022-09-22T06:44:32.783Z,97601.75
2022-09-22T06:46:59.723Z,97600.09
2022-09-22T06:49:26.341Z,97601.44
2022-09-22T06:51:52.890Z,97595.25
2022-09-22T06:54:21.569Z,97594.50
2022-09-22T06:56:48.736Z,97589.88
2022-09-22T06:59:16.808Z,97590.47
2022-09-22T07:01:45.117Z,97593.94
2022-09-22T07:04:12.271Z,97579.34
2022-09-22T07:06:40.792Z,97582.34
2022-09-22T07:09:09.194Z,97580.44
2022-09-22T07:11:39.761Z,97578.13
2022-09-22T07:14:06.716Z,97579.75
2022-09-22T07:16:33.227Z,97580.75
2022-09-22T07:18:59.814Z,97578.38
2022-09-22T07:21:29.970Z,97576.94
2022-09-22T07:23:57.435Z,97581.31
2022-09-22T07:26:28.868Z,97577.78
2022-09-22T07:28:58.545Z,97583.34
2022-09-22T07:31:28.800Z,97572.59
2022-09-22T07:33:56.272Z,97575.28
2022-09-22T07:36:23.859Z,97580.97
2022-09-22T07:38:51.496Z,97579.09
2022-09-22T07:41:19.158Z,97571.28
2022-09-22T07:43:46.052Z,97573.81
2022-09-22T07:46:13.596Z,97576.91
2022-09-22T07:48:48.041Z,97573.94
2022-09-22T07:51:19.848Z,97579.28
2022-09-22T07:53:47.846Z,97572.03
2022-09-22T07:56:15.409Z,97571.59
2022-09-22T07:58:45.948Z,97569.38
2022-09-22T08:01:12.490Z,97576.97
2022-09-22T08:03:39.824Z,97573.75
2022-09-22T08:06:11.273Z,97570.22
2022-09-22T08:08:42.249Z,97569.09
2022-09-22T08:11:17.827Z,97570.28
2022-09-22T08:13:49.410Z,97574.75
2022-09-22T08:16:17.733Z,97563.31
2022-09-22T08:18:44.452Z,97570.44
2022-09-22T08:21:10.887Z,97571.78
2022-09-22T08:23:40.765Z,97562.63
2022-09-22T08:26:09.463Z,97568.50
2022-09-22T08:28:35.904Z,97567.00
2022-09-22T08:31:02.658Z,97568.78
2022-09-22T08:33:30.978Z,97559.72
2022-09-22T08:35:59.517Z,97553.84
2022-09-22T08:38:28.257Z,97559.78
2022-09-22T08:41:05.826Z,97558.63
2022-09-22T08:43:34.135Z,97561.91
2022-09-22T08:46:03.348Z,97559.41
2022-09-22T08:48:49.076Z,97559.09
2022-09-22T08:51:46.137Z,97542.25
2022-09-22T08:54:12.691Z,97543.03
2022-09-22T08:56:55.146Z,97551.72
2022-09-22T08:59:23.193Z,97546.00
2022-09-22T09:02:08.721Z,97556.88
2022-09-22T09:04:35.487Z,97546.28
2022-09-22T09:07:18.402Z,97545.56
2022-09-22T09:10:01.019Z,97544.28
2022-09-22T09:12:45.995Z,97541.00
2022-09-22T09:15:31.131Z,97534.53
2022-09-22T09:18:02.723Z,97535.69
2022-09-22T09:20:32.239Z,97538.97
2022-09-22T09:23:03.893Z,97533.44
2022-09-22T09:25:38.924Z,97531.16
2022-09-22T09:28:27.860Z,97531.56
2022-09-22T09:31:02.451Z,97537.72
2022-09-22T09:33:31.918Z,97528.13
2022-09-22T09:35:58.633Z,97529.63
2022-09-22T09:38:31.520Z,97528.84
2022-09-22T09:41:01.337Z,97526.13
2022-09-22T09:43:28.294Z,97519.94
2022-09-22T09:46:07.667Z,97522.13
2022-09-22T09:48:40.986Z,97527.06
2022-09-22T09:51:11.928Z,97520.94
2022-09-22T09:53:42.725Z,97518.91
2022-09-22T09:56:21.284Z,97519.25
2022-09-22T09:59:13.909Z,97514.09
2022-09-22T10:01:42.190Z,97512.09
2022-09-22T10:04:27.687Z,97523.34
2022-09-22T10:06:54.593Z,97519.31
2022-09-22T10:09:40.257Z,97521.03
2022-09-22T10:12:08.415Z,97513.84
2022-09-22T10:14:35.194Z,97516.72
2022-09-22T10:17:01.712Z,97512.75
2022-09-22T10:19:30.400Z,97519.97
2022-09-22T10:22:17.510Z,97512.34
2022-09-22T10:24:57.367Z,97506.41
2022-09-22T10:27:24.996Z,97503.38
2022-09-22T10:30:11.515Z,97501.75
2022-09-22T10:32:38.461Z,97499.00
2022-09-22T10:35:26.179Z,97506.13
2022-09-22T10:37:56.256Z,97499.09
2022-09-22T10:40:23.556Z,97500.84
2022-09-22T10:42:51.956Z,97495.88
2022-09-22T10:45:20.365Z,97506.47
2022-09-22T10:47:55.991Z,97498.28
2022-09-22T10:50:47.006Z,97504.13
2022-09-22T10:53:31.294Z,97501.06
2022-09-22T10:56:17.776Z,97497.28
2022-09-22T10:58:45.408Z,97498.06
2022-09-22T11:01:18.674Z,97491.06
2022-09-22T11:03:54.053Z,97494.47
2022-09-22T11:06:46.795Z,97488.50
2022-09-22T11:09:38.012Z,97476.59
2022-09-22T11:12:16.417Z,97476.38
2022-09-22T11:14:45.939Z,97473.34
2022-09-22T11:17:31.663Z,97470.88
2022-09-22T11:20:01.227Z,97472.25
2022-09-22T11:22:30.806Z,97470.38
2022-09-22T11:25:27.253Z,97467.56
2022-09-22T11:28:03.245Z,97469.34
2022-09-22T11:30:39.243Z,97471.84
2022-09-22T11:33:20.821Z,97462.19
2022-09-22T11:36:06.221Z,97461.00
2022-09-22T11:38:53.063Z,97452.06
2022-09-22T11:41:29.920Z,97452.25
2022-09-22T11:44:15.264Z,97448.72
2022-09-22T11:46:57.139Z,97440.59
2022-09-22T11:49:47.171Z,97449.53
2022-09-22T11:52:17.543Z,97443.06
2022-09-22T11:55:10.549Z,97440.06
2022-09-22T11:57:40.648Z,97442.81
2022-09-22T12:00:18.834Z,97443.66
2022-09-22T12:03:02.637Z,97431.84
2022-09-22T12:05:35.303Z,97435.38
2022-09-22T12:08:01.821Z,97431.03
2022-09-22T12:10:35.765Z,97432.25
2022-09-22T12:13:04.509Z,97425.69
2022-09-22T12:15:30.973Z,97421.56
2022-09-22T12:18:03.720Z,97422.09
2022-09-22T12:20:52.513Z,97422.50
2022-09-22T12:23:52.208Z,97422.19
2022-09-22T12:26:30.988Z,97419.56
2022-09-22T12:28:58.658Z,97422.50
2022-09-22T12:31:36.121Z,97413.78
2022-09-22T12:34:03.835Z,97406.75
2022-09-22T12:36:32.962Z,97411.00
2022-09-22T12:39:11.638Z,97415.50
2022-09-22T12:41:45.118Z,97411.03
2022-09-22T12:44:13.874Z,97416.72
2022-09-22T12:46:43.087Z,97411.22
2022-09-22T12:49:13.778Z,97409.00
2022-09-22T12:51:40.239Z,97415.94
2022-09-22T12:54:38.323Z,97408.38
2022-09-22T12:57:08.733Z,97414.69
2022-09-22T12:59:39.457Z,97409.00
2022-09-22T13:02:26.132Z,97409.59
2022-09-22T13:05:13.417Z,97400.81
2022-09-22T13:07:41.675Z,97398.28
2022-09-22T13:10:27.561Z,97397.56
2022-09-22T13:12:57.042Z,97391.56
2022-09-22T13:15:24.096Z,97397.22
2022-09-22T13:17:52.767Z,97389.75
2022-09-22T13:20:22.293Z,97389.94
2022-09-22T13:22:48.852Z,97393.47
2022-09-22T13:25:20.183Z,97384.44
2022-09-22T13:27:46.895Z,97382.75
2022-09-22T13:30:14.377Z,97380.91
2022-09-22T13:32:53.925Z,97380.88
2022-09-22T13:35:24.154Z,97377.56
2022-09-22T13:37:50.719Z,97380.72
2022-09-22T13:40:17.331Z,97373.50
2022-09-22T13:42:44.902Z,97376.75
2022-09-22T13:45:18.777Z,97368.94
2022-09-22T13:47:47.056Z,97361.16
2022-09-22T13:50:19.304Z,97365.59
2022-09-22T13:52:52.250Z,97358.34
2022-09-22T13:55:26.537Z,97362.84
2022-09-22T13:57:55.512Z,97359.19
2022-09-22T14:00:24.752Z,97360.44
2022-09-22T14:02:52.263Z,97354.84
2022-09-22T14:05:28.179Z,97356.97
2022-09-22T14:08:17.101Z,97355.91
2022-09-22T14:10:45.036Z,97358.72
2022-09-22T14:13:31.450Z,97359.53
2022-09-22T14:15:57.970Z,97358.94
2022-09-22T14:18:26.473Z,97359.94
2022-09-22T14:20:55.579Z,97362.38
2022-09-22T14:23:27.146Z,97358.09
2022-09-22T14:25:56.016Z,97354.56
2022-09-22T14:28:24.992Z,97351.16
2022-09-22T14:30:51.707Z,97353.31
2022-09-22T14:33:22.460Z,97352.91
2022-09-22T14:35:49.893Z,97352.97
2022-09-22T14:38:23.126Z,97353.63
2022-09-22T14:40:50.884Z,97345.41
2022-09-22T14:43:24.997Z,97344.03
2022-09-22T14:46:00.071Z,97346.75
2022-09-22T14:48:34.455Z,97342.69
2022-09-22T14:51:07.464Z,97343.09
2022-09-22T14:53:46.377Z,97345.00
2022-09-22T14:56:15.523Z,97351.31
2022-09-22T14:58:43.974Z,97344.88
2022-09-22T15:01:42.228Z,97342.84
2022-09-22T15:04:14.865Z,97338.75
2022-09-22T15:06:41.642Z,97343.84
2022-09-22T15:09:22.693Z,97342.34
2022-09-22T15:11:49.468Z,97345.94
2022-09-22T15:14:25.865Z,97336.84
2022-09-22T15:16:52.572Z,97346.63
2022-09-22T15:19:20.783Z,97343.97
2022-09-22T15:21:55.096Z,97341.75
2022-09-22T15:24:27.000Z,97348.91
2022-09-22T15:26:57.357Z,97348.06
2022-09-22T15:29:25.827Z,97344.91
2022-09-22T15:31:52.407Z,97346.00
2022-09-22T15:34:18.967Z,97347.88
2022-09-22T15:36:48.878Z,97347.63
2022-09-22T15:39:23.018Z,97342.88
2022-09-22T15:41:52.886Z,97344.13
2022-09-22T15:44:19.485Z,97337.34
2022-09-22T15:46:51.520Z,97342.75
2022-09-22T15:49:21.155Z,97343.03
2022-09-22T15:51:58.339Z,97334.78
2022-09-22T15:54:26.253Z,97335.19
2022-09-22T15:56:55.827Z,97342.75
2022-09-22T15:59:24.613Z,97342.25
2022-09-22T16:01:52.254Z,97334.41
2022-09-22T16:04:20.196Z,97335.94
2022-09-22T16:06:55.782Z,97334.13
2022-09-22T16:09:22.595Z,97335.25
2022-09-22T16:11:50.456Z,97340.78
2022-09-22T16:14:17.409Z,97336.31
2022-09-22T16:16:45.891Z,97333.84
2022-09-22T16:19:12.529Z,97335.78
2022-09-22T16:21:43.140Z,97332.56
2022-09-22T16:24:10.784Z,97332.28
2022-09-22T16:26:38.200Z,97337.41
2022-09-22T16:29:04.979Z,97339.28
2022-09-22T16:31:31.525Z,97337.91
2022-09-22T16:34:00.408Z,97327.34
2022-09-22T16:36:35.196Z,97337.91
2022-09-22T16:39:02.262Z,97331.75
2022-09-22T16:41:29.946Z,97331.19
2022-09-22T16:43:56.933Z,97330.94
2022-09-22T16:46:27.013Z,97330.81
2022-09-22T16:49:01.295Z,97331.00
2022-09-22T16:51:28.035Z,97339.97
2022-09-22T16:53:55.787Z,97338.00
2022-09-22T16:56:23.503Z,97327.88
2022-09-22T16:58:50.030Z,97325.88
2022-09-22T17:01:19.844Z,97329.03
2022-09-22T17:03:48.241Z,97327.72
2022-09-22T17:06:25.494Z,97331.09
2022-09-22T17:08:53.576Z,97331.13
2022-09-22T17:11:21.657Z,97329.78
2022-09-22T17:13:50.867Z,97328.44
2022-09-22T17:16:33.734Z,97329.31
2022-09-22T17:19:04.951Z,97327.69
2022-09-22T17:21:34.464Z,97330.19
2022-09-22T17:24:15.514Z,97333.19
2022-09-22T17:26:47.870Z,97337.94
2022-09-22T17:29:15.978Z,97335.50
2022-09-22T17:31:43.330Z,97337.91
2022-09-22T17:34:10.621Z,97330.41
2022-09-22T17:36:37.531Z,97339.91
2022-09-22T17:39:04.834Z,97337.16
2022-09-22T17:41:33.311Z,97341.41
2022-09-22T17:44:02.344Z,97342.72
2022-09-22T17:46:30.089Z,97346.00
2022-09-22T17:49:35.993Z,97347.41
2022-09-22T17:52:21.024Z,97351.53
2022-09-22T17:55:06.196Z,97351.03
2022-09-22T17:57:37.697Z,97345.59
2022-09-22T18:00:06.377Z,97353.31
2022-09-22T18:02:36.684Z,97357.31
2022-09-22T18:05:07.899Z,97352.06
2022-09-22T18:07:38.286Z,97355.44
2022-09-22T18:10:06.847Z,97360.13
2022-09-22T18:12:34.228Z,97355.56
2022-09-22T18:15:04.076Z,97354.72
2022-09-22T18:17:32.350Z,97353.06
2022-09-22T18:19:59.344Z,97355.13
2022-09-22T18:22:27.111Z,97354.91
2022-09-22T18:24:58.772Z,97359.72
2022-09-22T18:27:29.907Z,97366.06
2022-09-22T18:29:59.557Z,97366.69
2022-09-22T18:32:31.076Z,97373.66
2022-09-22T18:34:57.529Z,97371.03
2022-09-22T18:37:29.979Z,97371.75
2022-09-22T18:40:05.894Z,97363.63
2022-09-22T18:42:32.458Z,97367.41
2022-09-22T18:44:58.934Z,97377.31
2022-09-22T18:47:25.552Z,97370.19
2022-09-22T18:49:52.048Z,97368.59
2022-09-22T18:52:24.717Z,97370.97
2022-09-22T18:54:54.200Z,97370.41
2022-09-22T18:57:21.898Z,97371.63
2022-09-22T18:59:51.213Z,97369.22
2022-09-22T19:02:22.536Z,97366.97
2022-09-22T19:04:49.417Z,97370.28
2022-09-22T19:07:42.926Z,97372.88
2022-09-22T19:10:10.950Z,97375.75
2022-09-22T19:12:39.675Z,97373.78
2022-09-22T19:15:13.784Z,97377.53
2022-09-22T19:17:44.583Z,97371.47
2022-09-22T19:20:13.640Z,97371.97
2022-09-22T19:22:45.850Z,97372.06
2022-09-22T19:25:12.909Z,97367.78
2022-09-22T19:27:40.073Z,97367.41
2022-09-22T19:30:07.264Z,97365.63
2022-09-22T19:32:33.862Z,97359.50
2022-09-22T19:35:00.379Z,97357.69
2022-09-22T19:37:29.223Z,97355.06
2022-09-22T19:39:55.760Z,97357.81
2022-09-22T19:42:22.370Z,97361.06
2022-09-22T19:44:48.923Z,97356.19
2022-09-22T19:47:16.019Z,97361.56
2022-09-22T19:49:42.513Z,97364.53
2022-09-22T19:52:09.359Z,97369.16
2022-09-22T19:54:35.829Z,97363.47
2022-09-22T19:57:02.772Z,97367.22
2022-09-22T19:59:29.735Z,97363.06
2022-09-22T20:01:56.295Z,97365.50
2022-09-22T20:04:23.510Z,97363.44
2022-09-22T20:06:50.006Z,97355.63
2022-09-22T20:09:22.498Z,97360.34
2022-09-22T20:11:49.665Z,97360.34
2022-09-22T20:14:22.951Z,97366.53
2022-09-22T20:16:50.883Z,97367.16
2022-09-22T20:19:17.713Z,97373.41
2022-09-22T20:21:54.650Z,97369.63
2022-09-22T20:24:22.607Z,97372.66
2022-09-22T20:26:49.180Z,97375.31
2022-09-22T20:29:17.861Z,97369.75
2022-09-22T20:31:44.908Z,97362.41
2022-09-22T20:34:15.193Z,97369.47
2022-09-22T20:36:43.128Z,97369.78
2022-09-22T20:39:13.302Z,97367.47
2022-09-22T20:41:41.079Z,97370.16
2022-09-22T20:44:14.872Z,97369.78
2022-09-22T20:46:42.139Z,97366.56
2022-09-22T20:49:12.266Z,97364.97
2022-09-22T20:51:48.970Z,97363.75
2022-09-22T20:54:16.185Z,97362.38
2022-09-22T20:56:43.099Z,97360.75
2022-09-22T20:59:09.874Z,97360.94
2022-09-22T21:01:37.060Z,97363.66
2022-09-22T21:04:03.595Z,97366.84
2022-09-22T21:06:31.099Z,97360.34
2022-09-22T21:09:16.414Z,97363.84
2022-09-22T21:11:43.205Z,97358.19
2022-09-22T21:14:09.812Z,97366.16
2022-09-22T21:16:37.264Z,97367.78
2022-09-22T21:19:03.896Z,97358.16
2022-09-22T21:21:31.744Z,97358.44
2022-09-22T21:24:01.986Z,97361.44
2022-09-22T21:26:29.599Z,97351.69
2022-09-22T21:28:56.046Z,97358.75
2022-09-22T21:31:28.079Z,97361.88
2022-09-22T21:33:54.805Z,97360.25
2022-09-22T21:36:22.686Z,97360.38
2022-09-22T21:38:50.333Z,97364.78
2022-09-22T21:41:18.208Z,97360.66
2022-09-22T21:43:47.744Z,97363.16
2022-09-22T21:46:15.920Z,97368.59
2022-09-22T21:48:42.648Z,97366.28
2022-09-22T21:51:16.231Z,97363.28
2022-09-22T21:53:45.873Z,97365.19
2022-09-22T21:56:17.943Z,97358.72
2022-09-22T21:58:46.006Z,97357.91
2022-09-22T22:01:16.305Z,97357.09
2022-09-22T22:03:43.731Z,97358.44
2022-09-22T22:06:13.388Z,97358.88
2022-09-22T22:08:48.193Z,97358.97
2022-09-22T22:11:14.642Z,97359.38
2022-09-22T22:13:42.277Z,97359.06
2022-09-22T22:16:11.389Z,97352.75
2022-09-22T22:18:38.719Z,97347.97
2022-09-22T22:21:09.970Z,97344.09
2022-09-22T22:23:40.080Z,97348.50
2022-09-22T22:26:08.830Z,97348.25
2022-09-22T22:28:35.504Z,97347.94
2022-09-22T22:31:03.348Z,97343.59
2022-09-22T22:33:30.193Z,97343.19
2022-09-22T22:35:59.735Z,97345.19
2022-09-22T22:38:26.523Z,97337.59
2022-09-22T22:40:53.069Z,97345.53
2022-09-22T22:43:25.558Z,97335.53
2022-09-22T22:45:52.156Z,97337.91
2022-09-22T22:48:18.794Z,97339.94
2022-09-22T22:50:45.267Z,97338.25
2022-09-22T22:53:12.786Z,97338.41
2022-09-22T22:55:40.542Z,97335.56
2022-09-22T22:58:07.012Z,97336.53
2022-09-22T23:00:33.465Z,97341.53
2022-09-22T23:02:59.943Z,97332.66
2022-09-22T23:05:26.931Z,97338.34
2022-09-22T23:07:54.073Z,97331.59
2022-09-22T23:10:21.213Z,97331.59
2022-09-22T23:12:47.755Z,97343.03
2022-09-22T23:15:15.667Z,97340.00
2022-09-22T23:17:42.105Z,97331.94
2022-09-22T23:20:08.910Z,97330.16
2022-09-22T23:22:35.553Z,97333.69
2022-09-22T23:25:03.111Z,97327.44
2022-09-22T23:27:29.615Z,97322.63
2022-09-22T23:29:57.261Z,97325.25
2022-09-22T23:32:24.595Z,97315.19
2022-09-22T23:34:51.038Z,97325.16
2022-09-22T23:37:17.653Z,97320.81
2022-09-22T23:39:44.110Z,97325.97
2022-09-22T23:42:10.597Z,97324.56
2022-09-22T23:44:37.043Z,97329.16
2022-09-22T23:47:03.584Z,97322.38
2022-09-22T23:49:30.021Z,97318.06
2022-09-22T23:51:56.449Z,97321.34
2022-09-22T23:54:24.030Z,97319.78
2022-09-22T23:56:50.530Z,97325.38
2022-09-22T23:59:17.018Z,97327.09
